Accueil
METAR-TAF:

METAR-TAF

Aéroports :

Aéroport de Bordeaux-Mérignac

Bordeaux, France

latitude: 44-50N, longitude: 000-42W, altitude: 49 m

Observation

Le bulletin a été fait il y a 25 minutes, à 12:00 UTC
Vent 6 kt de nord-est, variant entre nord et est
Température 14°C
Humidité 44%
Pression 1020 hPa
Visibilité 10 km ou plus
Quelques nuages à une hauteur de 100 ft

METAR: LFBD 031200Z AUTO 05006KT 360V100 9999 FEW001 14/02 Q1020 NOSIG

Heure: 14:25 (12:25 UTC)

Prévision

Le bulletin a été fait il y a 1 heure et 25 minutes, à 11:00 UTC
Prévision valable du 03 à 12 UTC au 04 à 18 UTC
Vent 10 kt de nord-est
Visibilité 10 km ou plus
pas de nuages en-dessous de 1500 mètres et pas de cumulonimbus.
Evoluant progressivement
du 04 à 09 UTC au 04 à 11 UTC
Vent 10 kt de est

TAF: LFBD 031100Z 0312/0418 04010KT CAVOK TX21/0415Z TN05/0406Z BECMG 0409/0411 10010KT

Observations et prévisions météorologiques de plus de 4000 aéroports (messages METAR et TAF).

Les stations disponibles sont représentées par des disques jaunes et rouges sur la carte.

Passer la souris dessus pour voir le nom de la station.

Cliquer dessus pour voir les observations et prévisions météorologiques.

Pour changer de carte: cliquez sur les boutons verts avec une croix noire pour zoomer, sur le bouton vert avec un tiret pour effectuer un zoom arrière, ou sur les flèches vertes pour les cartes adjacentes.


METAR-TAF: